This is the latest recevied weather packets stored in our database for station/object IT9CYW-10. If no packets are shown the sender has not sent any weather packets the latest 10 day(s).
| Time | Temp. | Humidity | Pressure | Rain* | Wind** | Luminosity | Snow |
|---|---|---|---|---|---|---|---|
| 1777761789 | 9.44° C | 81% | 1003.9 hPa | - | - | 0 W/m² | - |
| 1777760889 | 9.44° C | 83% | 1003.9 hPa | - | - | 0 W/m² | - |
| 1777759989 | 9.44° C | 82% | 1004 hPa | - | - | 0 W/m² | - |
| 1777759089 | 10° C | 79% | 1003.7 hPa | - | - | 0 W/m² | - |
| 1777758188 | 10° C | 81% | 1003.7 hPa | - | - | 0 W/m² | - |
| 1777757288 | 10.56° C | 77% | 1003.9 hPa | - | - | 0 W/m² | - |
| 1777756388 | 10° C | 77% | 1003.7 hPa | - | - | 0 W/m² | - |
| 1777755488 | 9.44° C | 82% | 1003.5 hPa | - | - | 0 W/m² | - |
| 1777754588 | 9.44° C | 82% | 1003.5 hPa | - | - | 0 W/m² | - |
| 1777753688 | 10° C | 81% | 1003.4 hPa | - | - | 0 W/m² | - |
| 1777752788 | 10° C | 81% | 1003.5 hPa | - | - | 0 W/m² | - |
| 1777751887 | 10° C | 80% | 1003.7 hPa | - | - | 0 W/m² | - |
| 1777750987 | 10.56° C | 79% | 1003.7 hPa | - | - | 0 W/m² | - |
| 1777750087 | 11.11° C | 77% | 1003.2 hPa | - | - | 0 W/m² | - |
| 1777749187 | 11.11° C | 75% | 1003.4 hPa | - | - | 0 W/m² | - |
| 1777748287 | 11.67° C | 72% | 1003.2 hPa | - | - | 0 W/m² | - |
| 1777747386 | 12.22° C | 69% | 1002.7 hPa | - | - | 0 W/m² | - |
| 1777746486 | 12.78° C | 67% | 1002.4 hPa | - | - | 0 W/m² | - |
| 1777745586 | 13.33° C | 65% | 1002.4 hPa | - | - | 0 W/m² | - |
| 1777744686 | 13.89° C | 62% | 1002.4 hPa | - | - | 3 W/m² | - |
| 1777743786 | 15° C | 59% | 1002.2 hPa | - | - | 10 W/m² | - |
| 1777741993 | 15.56° C | 55% | 1002 hPa | - | - | 26 W/m² | - |
| 1777741092 | 15.56° C | 55% | 1001.9 hPa | - | - | 31 W/m² | - |
| 1777740192 | 16.11° C | 54% | 1001.7 hPa | - | - | 35 W/m² | - |
| 1777739292 | 16.11° C | 53% | 1002 hPa | - | - | 39 W/m² | - |
* Rain since midnight (hover to see other rain measurements)
** Current wind speed in m/s (hover to see current wind gust speed)